Crosby, ND

3:58 PM CDT on June 22, 2017 (GMT -0500)
Crosby

Weather History for KD50 - December, 2013

Change the Weather History Date:

Monday, December 16, 2013

  Actual Average (KISN) Record (KISN)
Temperature  
Mean Temperature 29 °F -  
Max Temperature 35 °F 24 °F 54 °F (1962)
Min Temperature 23 °F 5 °F -25 °F (2008)
Degree Days  
Heating Degree Days 36    
Moisture  
Dew Point 23 °F    
Average Humidity 76    
Maximum Humidity 93    
Minimum Humidity 65    
Precipitation  
Precipitation 0.00 in - - ()
Sea Level Pressure  
Sea Level Pressure 29.88 in    
Wind  
Wind Speed 18 mph (West)    
Max Wind Speed 31 mph    
Max Gust Speed 38 mph    
Visibility 10 miles    
Events      
Averages and records for this station are not official NWS values.
T = Trace of Precipitation, MM = Missing Value Source: NWS Daily Summary

Daily Weather History Graph

Daily Weather History Graph

Search for Another Location

Airport or City:

Trip Planner

Search our weather history database for the weather conditions in past years. The results will help you decide how hot, cold, wet, or windy it might be!

Date:

Astronomy

Dec. 16, 2013 Rise Set
Actual Time 8:41 AM CST 4:56 PM CST
Civil Twilight 8:04 AM CST 5:34 PM CST
Nautical Twilight 7:23 AM CST 6:14 PM CST
Astronomical Twilight 6:44 AM CST 6:53 PM CST
Moon 4:53 PM CST (12/16) 7:46 AM CST (12/16)
Length of Visible Light 9h 29m
Length of Day
8h 15m
Full, 100% of the Moon is Illuminated
Dec 16
Full
Dec 17
Full
Dec 25
Last Quarter
Jan 1
New
Jan 7
First Quarter

Hourly Weather History & Observations

Time (CST) Temp. Windchill Dew Point Humidity Pressure Visibility Wind Dir Wind Speed Gust Speed Precip Events Conditions
12:15 AM 32.0 °F 24.8 °F 30.2 °F 93% 29.76 in 10.0 mi WNW 8.1 mph - N/A   Unknown
12:35 AM 32.0 °F 24.8 °F 30.2 °F 93% 29.76 in 10.0 mi West 8.1 mph - N/A   Unknown
12:55 AM 33.8 °F 22.8 °F 28.4 °F 81% 29.76 in 10.0 mi WNW 18.4 mph 26.5 mph N/A   Unknown
1:15 AM 35.6 °F 25.5 °F 26.6 °F 70% 29.77 in 10.0 mi West 17.3 mph - N/A   Unknown
1:35 AM 35.6 °F 24.5 °F 24.8 °F 65% 29.76 in 10.0 mi West 20.7 mph 26.5 mph N/A   Unknown
1:55 AM 35.6 °F 25.9 °F 26.6 °F 70% 29.77 in 10.0 mi West 16.1 mph - N/A   Unknown
2:15 AM 33.8 °F 23.5 °F 26.6 °F 75% 29.77 in 10.0 mi West 16.1 mph - N/A   Unknown
2:35 AM 32.0 °F 22.1 °F 24.8 °F 75% 29.78 in 10.0 mi West 13.8 mph - N/A   Unknown
2:55 AM 32.0 °F 20.5 °F 24.8 °F 75% 29.80 in 10.0 mi West 18.4 mph - N/A   Unknown
3:15 AM 32.0 °F 20.5 °F 23.0 °F 69% 29.82 in 10.0 mi West 18.4 mph 23.0 mph N/A   Unknown
3:35 AM 30.2 °F 18.9 °F 23.0 °F 75% 29.82 in 10.0 mi West 16.1 mph - N/A   Unknown
3:55 AM 30.2 °F 17.8 °F 23.0 °F 75% 29.82 in 10.0 mi West 19.6 mph - N/A   Unknown
4:15 AM 28.4 °F 15.4 °F 21.2 °F 74% 29.83 in 10.0 mi West 19.6 mph - N/A   Unknown
4:35 AM 28.4 °F 15.4 °F 21.2 °F 74% 29.82 in 10.0 mi West 19.6 mph 25.3 mph N/A   Unknown
4:55 AM 28.4 °F 15.8 °F 19.4 °F 69% 29.83 in 10.0 mi West 18.4 mph - N/A   Unknown
5:15 AM 26.6 °F 13.8 °F 19.4 °F 74% 29.83 in 10.0 mi West 17.3 mph - N/A   Unknown
5:35 AM 26.6 °F 15.2 °F 19.4 °F 74% 29.84 in 10.0 mi West 13.8 mph - N/A   Unknown
5:55 AM 28.4 °F 16.6 °F 19.4 °F 69% 29.84 in 10.0 mi WNW 16.1 mph - N/A   Unknown
6:15 AM 28.4 °F 17.5 °F 19.4 °F 69% 29.84 in 10.0 mi WNW 13.8 mph - N/A   Unknown
6:35 AM 28.4 °F 17.0 °F 19.4 °F 69% 29.85 in 10.0 mi WNW 15.0 mph - N/A   Unknown
6:55 AM 26.6 °F 14.3 °F 17.6 °F 69% 29.85 in 10.0 mi WNW 16.1 mph - N/A   Unknown
7:15 AM 26.6 °F 14.7 °F 17.6 °F 69% 29.85 in 10.0 mi West 15.0 mph - N/A   Unknown
7:35 AM 26.6 °F 15.7 °F 17.6 °F 69% 29.85 in 10.0 mi West 12.7 mph - N/A   Unknown
7:55 AM 23.0 °F 12.4 °F 17.6 °F 80% 29.85 in 10.0 mi West 10.4 mph - N/A   Unknown
8:15 AM 24.8 °F 12.4 °F 17.6 °F 74% 29.85 in 10.0 mi West 15.0 mph - N/A   Unknown
8:35 AM 24.8 °F 10.7 °F 19.4 °F 80% 29.86 in 10.0 mi West 19.6 mph - N/A   Unknown
8:55 AM 26.6 °F 13.8 °F 19.4 °F 74% 29.85 in 10.0 mi West 17.3 mph - N/A   Unknown
9:15 AM 26.6 °F 13.4 °F 19.4 °F 74% 29.86 in 10.0 mi West 18.4 mph - N/A   Unknown
9:35 AM 26.6 °F 13.4 °F 19.4 °F 74% 29.87 in 10.0 mi West 18.4 mph 25.3 mph N/A   Unknown
9:55 AM 26.6 °F 12.7 °F 19.4 °F 74% 29.88 in 10.0 mi West 20.7 mph - N/A   Unknown
10:15 AM 28.4 °F 15.1 °F 21.2 °F 74% 29.88 in 10.0 mi West 20.7 mph 27.6 mph N/A   Unknown
10:35 AM 28.4 °F 13.8 °F 23.0 °F 80% 29.88 in 10.0 mi West 25.3 mph 29.9 mph N/A   Unknown
10:55 AM 28.4 °F 14.7 °F 23.0 °F 80% 29.89 in 10.0 mi West 21.9 mph 29.9 mph N/A   Unknown
11:15 AM 28.4 °F 14.7 °F 23.0 °F 80% 29.89 in 10.0 mi West 21.9 mph 27.6 mph N/A   Unknown
11:35 AM 28.4 °F 15.4 °F 23.0 °F 80% 29.89 in 10.0 mi West 19.6 mph - N/A   Unknown
11:55 AM 30.2 °F 17.1 °F 23.0 °F 75% 29.89 in 10.0 mi West 21.9 mph 28.8 mph N/A   Unknown
12:15 PM 30.2 °F 17.8 °F 24.8 °F 80% 29.89 in 10.0 mi West 19.6 mph 25.3 mph N/A   Unknown
12:35 PM 32.0 °F 19.5 °F 24.8 °F 75% 29.90 in 10.0 mi West 21.9 mph 28.8 mph N/A   Unknown
12:55 PM 32.0 °F 19.2 °F 24.8 °F 75% 29.89 in 10.0 mi West 23.0 mph 27.6 mph N/A   Unknown
1:15 PM 32.0 °F 19.5 °F 24.8 °F 75% 29.88 in 10.0 mi West 21.9 mph 28.8 mph N/A   Unknown
1:35 PM 32.0 °F 19.8 °F 26.6 °F 80% 29.89 in 10.0 mi West 20.7 mph - N/A   Unknown
1:55 PM 32.0 °F 19.5 °F 26.6 °F 80% 29.89 in 10.0 mi West 21.9 mph 27.6 mph N/A   Unknown
2:15 PM 32.0 °F 19.5 °F 26.6 °F 80% 29.89 in 10.0 mi West 21.9 mph 27.6 mph N/A   Unknown
2:35 PM 32.0 °F 19.5 °F 28.4 °F 87% 29.89 in 10.0 mi West 21.9 mph - N/A   Unknown
2:55 PM 33.8 °F 21.6 °F 28.4 °F 81% 29.88 in 10.0 mi West 23.0 mph 29.9 mph N/A   Unknown
3:15 PM 32.0 °F 19.5 °F 28.4 °F 87% 29.89 in 10.0 mi West 21.9 mph 29.9 mph N/A   Unknown
3:35 PM 32.0 °F 18.6 °F 28.4 °F 87% 29.90 in 10.0 mi West 25.3 mph 31.1 mph N/A   Unknown
3:55 PM 32.0 °F 18.9 °F 26.6 °F 80% 29.90 in 10.0 mi West 24.2 mph 28.8 mph N/A   Unknown
4:15 PM 32.0 °F 18.9 °F 26.6 °F 80% 29.91 in 10.0 mi West 24.2 mph 32.2 mph N/A   Unknown
4:35 PM 32.0 °F 20.1 °F 26.6 °F 80% 29.91 in 10.0 mi West 19.6 mph 26.5 mph N/A   Unknown
4:55 PM 32.0 °F 19.5 °F 24.8 °F 75% 29.92 in 10.0 mi West 21.9 mph 27.6 mph N/A   Unknown
5:15 PM 32.0 °F 18.1 °F 24.8 °F 75% 29.93 in 10.0 mi West 27.6 mph 33.4 mph N/A   Unknown
5:35 PM 32.0 °F 18.1 °F 24.8 °F 75% 29.93 in 9.0 mi West 27.6 mph 38.0 mph N/A   Unknown
5:55 PM 32.0 °F 18.4 °F 24.8 °F 75% 29.94 in 10.0 mi WNW 26.5 mph 35.7 mph N/A   Unknown
6:15 PM 30.2 °F 15.9 °F 24.8 °F 80% 29.94 in 10.0 mi WNW 26.5 mph 36.8 mph N/A   Unknown
6:35 PM 30.2 °F 14.9 °F 24.8 °F 80% 29.94 in 10.0 mi WNW 31.1 mph 38.0 mph N/A   Unknown
6:55 PM 30.2 °F 15.7 °F 24.8 °F 80% 29.95 in 10.0 mi West 27.6 mph 34.5 mph N/A   Unknown
7:15 PM 28.4 °F 13.5 °F 23.0 °F 80% 29.95 in 10.0 mi WNW 26.5 mph 33.4 mph N/A   Unknown
7:35 PM 28.4 °F 13.8 °F 23.0 °F 80% 29.96 in 10.0 mi WNW 25.3 mph 34.5 mph N/A   Unknown
7:55 PM 28.4 °F 15.4 °F 21.2 °F 74% 29.96 in 10.0 mi WNW 19.6 mph - N/A   Unknown
8:15 PM 28.4 °F 15.1 °F 21.2 °F 74% 29.97 in 10.0 mi WNW 20.7 mph 26.5 mph N/A   Unknown
8:35 PM 28.4 °F 14.4 °F 21.2 °F 74% 29.97 in 10.0 mi WNW 23.0 mph 28.8 mph N/A   Unknown
8:55 PM 26.6 °F 13.1 °F 21.2 °F 80% 29.97 in 10.0 mi WNW 19.6 mph 27.6 mph N/A   Unknown
9:15 PM 26.6 °F 12.7 °F 19.4 °F 74% 29.98 in 10.0 mi WNW 20.7 mph - N/A   Unknown
9:35 PM 26.6 °F 12.7 °F 19.4 °F 74% 29.99 in 10.0 mi WNW 20.7 mph 26.5 mph N/A   Unknown
9:55 PM 26.6 °F 12.0 °F 19.4 °F 74% 29.99 in 10.0 mi WNW 23.0 mph 32.2 mph N/A   Unknown
10:15 PM 26.6 °F 12.0 °F 19.4 °F 74% 30.00 in 10.0 mi WNW 23.0 mph 27.6 mph N/A   Unknown
10:35 PM 24.8 °F 10.7 °F 19.4 °F 80% 30.01 in 10.0 mi WNW 19.6 mph 25.3 mph N/A   Unknown
10:55 PM 24.8 °F 10.7 °F 17.6 °F 74% 30.02 in 10.0 mi WNW 19.6 mph - N/A   Unknown
11:55 PM 23.0 °F 8.7 °F 17.6 °F 80% 30.04 in 10.0 mi WNW 18.4 mph - N/A   Unknown